Currie, Minnesota
Current Conditions -  °F | °C
As of 5:36 AM on Saturday 22 Nov 2014 (Local Time) from KDVP Reporting Station
Moderate Fog Moderate Fog  
Wind Chill: 23°   Ceiling: 200
Heat Index: 32°   Visibility: 0.5mi
Dew Point: 32°   Wind: 13mph
Humidity: 100%   Direction: 230°SW
Pressure: 29.77"   Gusts: NA
Location:  44.07°N, 95.67°W
Report Text: KDVP 221136Z AUTO 23011KT 1/2SM FG OVC002 00/00 A2977 RMK AO2 T00000000
Loading
Personal Weather Stations






























Interactive Weather Map New forecast layout! Learn more

10-Day Weather Forecast

Advertisements
Track Severe Weather on mobile